createdAt,value
2022-09-07T00:01:04.865Z,63.59
2022-09-07T00:03:32.148Z,64.17
2022-09-07T00:05:59.934Z,64.04
2022-09-07T00:08:28.041Z,63.92
2022-09-07T00:11:01.939Z,64.53
2022-09-07T00:13:33.759Z,64.00
2022-09-07T00:16:12.614Z,64.45
2022-09-07T00:18:45.223Z,64.48
2022-09-07T00:21:14.192Z,64.82
2022-09-07T00:23:41.322Z,64.52
2022-09-07T00:26:17.596Z,64.82
2022-09-07T00:28:45.230Z,64.68
2022-09-07T00:31:24.624Z,65.34
2022-09-07T00:33:53.789Z,65.03
2022-09-07T00:36:22.070Z,65.43
2022-09-07T00:38:49.647Z,65.76
2022-09-07T00:41:18.320Z,65.72
2022-09-07T00:43:55.389Z,66.51
2022-09-07T00:46:32.310Z,66.94
2022-09-07T00:49:10.364Z,66.32
2022-09-07T00:51:50.945Z,66.26
2022-09-07T00:54:42.313Z,66.44
2022-09-07T00:57:09.876Z,66.45
2022-09-07T00:59:43.380Z,66.81
2022-09-07T01:02:12.311Z,66.77
2022-09-07T01:04:39.803Z,66.08
2022-09-07T01:07:07.060Z,67.55
2022-09-07T01:09:35.381Z,67.28
2022-09-07T01:12:03.491Z,67.27
2022-09-07T01:14:40.426Z,67.47
2022-09-07T01:17:16.630Z,68.25
2022-09-07T01:20:43.943Z,68.07
2022-09-07T01:23:50.330Z,68.42
2022-09-07T01:27:02.287Z,68.56
2022-09-07T01:29:52.606Z,67.75
2022-09-07T01:32:28.561Z,69.01
2022-09-07T01:34:55.662Z,68.50
2022-09-07T01:37:40.623Z,68.26
2022-09-07T01:41:05.792Z,68.75
2022-09-07T01:43:43.382Z,68.54
2022-09-07T01:46:42.226Z,68.59
2022-09-07T01:49:21.343Z,68.23
2022-09-07T01:51:54.652Z,68.01
2022-09-07T01:54:33.888Z,68.59
2022-09-07T01:57:10.381Z,68.04
2022-09-07T01:59:44.643Z,68.86
2022-09-07T02:02:19.762Z,69.11
2022-09-07T02:05:07.478Z,69.21
2022-09-07T02:07:53.512Z,69.31
2022-09-07T02:10:28.877Z,68.97
2022-09-07T02:13:08.188Z,68.82
2022-09-07T02:16:03.354Z,69.08
2022-09-07T02:18:37.511Z,69.65
2022-09-07T02:21:07.852Z,69.23
2022-09-07T02:23:44.196Z,69.45
2022-09-07T02:26:18.299Z,69.03
2022-09-07T02:28:45.716Z,69.39
2022-09-07T02:31:13.567Z,68.96
2022-09-07T02:33:41.949Z,69.84
2022-09-07T02:36:09.978Z,69.33
2022-09-07T02:38:37.157Z,69.28
2022-09-07T02:41:05.086Z,69.56
2022-09-07T02:43:32.736Z,69.75
2022-09-07T02:46:46.279Z,70.01
2022-09-07T02:50:14.832Z,70.49
2022-09-07T02:53:38.701Z,70.51
2022-09-07T02:56:34.459Z,70.82
2022-09-07T03:02:25.737Z,70.36
2022-09-07T03:05:32.342Z,71.18
2022-09-07T03:08:05.549Z,70.87
2022-09-07T03:10:33.298Z,71.10
2022-09-07T03:13:00.233Z,71.00
2022-09-07T03:15:28.297Z,70.84
2022-09-07T03:17:55.400Z,71.25
2022-09-07T03:20:23.422Z,71.19
2022-09-07T03:22:52.249Z,70.83
2022-09-07T03:25:19.891Z,71.02
2022-09-07T03:27:46.977Z,70.96
2022-09-07T03:30:14.571Z,71.38
2022-09-07T03:32:42.147Z,71.35
2022-09-07T03:35:10.220Z,71.79
2022-09-07T03:37:38.457Z,71.43
2022-09-07T03:40:09.962Z,71.57
2022-09-07T03:42:37.523Z,71.70
2022-09-07T03:45:07.163Z,71.55
2022-09-07T03:47:37.833Z,71.43
2022-09-07T03:50:06.125Z,71.41
2022-09-07T03:52:35.221Z,72.12
2022-09-07T03:55:02.295Z,71.78
2022-09-07T03:57:29.277Z,71.87
2022-09-07T03:59:56.246Z,72.00
2022-09-07T04:02:23.240Z,71.60
2022-09-07T04:04:50.283Z,71.82
2022-09-07T04:07:17.341Z,71.92
2022-09-07T04:09:44.362Z,72.17
2022-09-07T04:12:11.343Z,72.09
2022-09-07T04:14:38.263Z,72.20
2022-09-07T04:17:05.576Z,72.19
2022-09-07T04:19:32.522Z,72.19
2022-09-07T04:21:59.718Z,72.14
2022-09-07T04:24:26.801Z,72.44
2022-09-07T04:26:53.691Z,72.94
2022-09-07T04:29:20.656Z,72.11
2022-09-07T04:31:47.786Z,72.36
2022-09-07T04:34:14.978Z,72.66
2022-09-07T04:36:42.107Z,72.75
2022-09-07T04:39:11.397Z,72.35
2022-09-07T04:41:38.325Z,72.40
2022-09-07T04:44:05.404Z,72.35
2022-09-07T04:46:37.521Z,72.76
2022-09-07T04:49:08.526Z,72.70
2022-09-07T04:51:36.833Z,73.04
2022-09-07T04:54:04.545Z,73.09
2022-09-07T04:56:33.677Z,73.10
2022-09-07T04:59:03.084Z,72.79
2022-09-07T05:01:31.401Z,73.47
2022-09-07T05:04:03.532Z,73.30
2022-09-07T05:06:31.107Z,73.14
2022-09-07T05:08:59.180Z,73.45
2022-09-07T05:11:29.403Z,73.71
2022-09-07T05:13:59.105Z,74.03
2022-09-07T05:16:27.509Z,73.94
2022-09-07T05:18:58.175Z,74.20
2022-09-07T05:21:28.646Z,73.91
2022-09-07T05:23:58.089Z,73.99
2022-09-07T05:26:29.347Z,74.33
2022-09-07T05:31:43.703Z,74.28
2022-09-07T05:36:58.059Z,74.04
2022-09-07T05:39:25.393Z,74.19
2022-09-07T05:41:52.586Z,74.03
2022-09-07T05:47:07.513Z,73.50
2022-09-07T05:49:34.673Z,73.42
2022-09-07T05:52:01.732Z,73.56
2022-09-07T05:54:28.851Z,73.41
2022-09-07T05:56:55.896Z,73.91
2022-09-07T05:59:22.954Z,73.48
2022-09-07T06:01:50.719Z,73.56
2022-09-07T06:04:18.208Z,73.56
2022-09-07T06:06:59.160Z,73.71
2022-09-07T06:09:31.830Z,73.44
2022-09-07T06:11:58.934Z,73.46
2022-09-07T06:14:25.907Z,73.37
2022-09-07T06:16:53.751Z,73.14
2022-09-07T06:19:21.385Z,73.21
2022-09-07T06:21:48.797Z,72.84
2022-09-07T06:24:15.938Z,72.69
2022-09-07T06:26:43.118Z,72.90
2022-09-07T06:29:10.560Z,71.87
2022-09-07T06:34:26.418Z,70.96
2022-09-07T06:36:53.359Z,70.28
2022-09-07T06:39:20.350Z,69.19
2022-09-07T06:42:02.584Z,69.36
2022-09-07T06:44:31.640Z,69.07
2022-09-07T06:49:26.983Z,68.41
2022-09-07T06:51:53.963Z,68.73
2022-09-07T06:57:10.863Z,67.81
2022-09-07T06:59:38.598Z,66.93
2022-09-07T07:02:06.865Z,66.31
2022-09-07T07:04:39.501Z,66.57
2022-09-07T07:07:13.707Z,67.04
2022-09-07T07:09:41.946Z,66.75
2022-09-07T07:12:10.710Z,66.73
2022-09-07T07:14:40.978Z,67.06
2022-09-07T07:17:11.194Z,66.34
2022-09-07T07:19:38.625Z,66.09
2022-09-07T07:24:53.202Z,66.41
2022-09-07T07:27:22.303Z,65.57
2022-09-07T07:29:49.984Z,65.11
2022-09-07T07:32:17.426Z,65.10
2022-09-07T07:34:44.831Z,65.06
2022-09-07T07:37:11.854Z,64.81
2022-09-07T07:42:26.342Z,64.20
2022-09-07T07:47:40.273Z,65.13
2022-09-07T07:55:43.817Z,64.32
2022-09-07T07:58:11.011Z,64.50
2022-09-07T08:00:53.788Z,63.98
2022-09-07T08:03:23.171Z,63.37
2022-09-07T08:05:50.406Z,63.91
2022-09-07T08:08:17.419Z,63.12
2022-09-07T08:10:46.037Z,63.39
2022-09-07T08:13:13.290Z,63.77
2022-09-07T08:15:46.364Z,63.31
2022-09-07T08:18:16.689Z,63.26
2022-09-07T08:20:43.924Z,63.24
2022-09-07T08:23:11.615Z,63.08
2022-09-07T08:25:38.707Z,63.14
2022-09-07T08:28:06.572Z,63.87
2022-09-07T08:30:33.535Z,63.36
2022-09-07T08:33:00.525Z,63.44
2022-09-07T08:35:27.619Z,62.76
2022-09-07T08:37:54.648Z,62.69
2022-09-07T08:40:25.563Z,63.28
2022-09-07T08:43:08.393Z,63.37
2022-09-07T08:45:41.800Z,62.84
2022-09-07T08:48:15.171Z,63.14
2022-09-07T08:50:53.954Z,63.02
2022-09-07T08:53:23.080Z,63.85
2022-09-07T08:55:57.062Z,64.47
2022-09-07T08:58:49.814Z,63.82
2022-09-07T09:01:41.595Z,64.00
2022-09-07T09:04:25.658Z,63.76
2022-09-07T09:07:29.933Z,64.41
2022-09-07T09:10:30.532Z,64.27
2022-09-07T09:13:09.681Z,64.14
2022-09-07T09:15:53.261Z,63.52
2022-09-07T09:18:42.482Z,62.63
2022-09-07T09:21:18.816Z,62.17
2022-09-07T09:23:50.090Z,63.17
2022-09-07T09:26:26.871Z,62.37
2022-09-07T09:28:55.160Z,61.60
2022-09-07T09:31:26.806Z,61.50
2022-09-07T09:34:09.660Z,61.13
2022-09-07T09:36:44.418Z,61.48
2022-09-07T09:39:38.044Z,60.86
2022-09-07T09:42:11.460Z,61.05
2022-09-07T09:44:39.484Z,61.42
2022-09-07T09:49:54.446Z,61.73
2022-09-07T09:52:29.708Z,62.57
2022-09-07T09:55:17.236Z,62.22
2022-09-07T10:01:21.223Z,62.49
2022-09-07T10:06:18.982Z,62.36
2022-09-07T10:09:04.197Z,61.93
2022-09-07T10:14:45.458Z,63.03
2022-09-07T10:17:35.864Z,63.18
2022-09-07T10:20:37.540Z,62.00
2022-09-07T10:23:06.816Z,62.79
2022-09-07T10:25:44.232Z,61.67
2022-09-07T10:28:14.390Z,61.63
2022-09-07T10:31:13.927Z,61.59
2022-09-07T10:34:27.477Z,62.33
2022-09-07T10:37:05.849Z,62.16
2022-09-07T10:39:43.633Z,62.52
2022-09-07T10:42:29.234Z,62.45
2022-09-07T10:45:17.178Z,61.80
2022-09-07T10:47:57.536Z,61.77
2022-09-07T10:50:39.665Z,62.60
2022-09-07T10:53:40.116Z,62.87
2022-09-07T10:56:26.209Z,63.46
2022-09-07T11:03:28.132Z,63.74
2022-09-07T11:06:16.599Z,63.74
2022-09-07T11:09:36.756Z,62.77
2022-09-07T11:12:09.768Z,62.30
2022-09-07T11:14:45.352Z,61.97
2022-09-07T11:17:25.612Z,62.82
2022-09-07T11:20:12.120Z,63.15
2022-09-07T11:22:43.398Z,62.91
2022-09-07T11:25:32.645Z,61.58
2022-09-07T11:28:12.635Z,61.80
2022-09-07T11:31:00.322Z,61.57
2022-09-07T11:33:42.149Z,61.58
2022-09-07T11:36:15.942Z,61.65
2022-09-07T11:38:54.430Z,61.60
2022-09-07T11:41:38.607Z,61.59
2022-09-07T11:44:43.699Z,61.86
2022-09-07T11:47:29.615Z,61.96
2022-09-07T11:49:59.340Z,62.21
2022-09-07T11:52:40.136Z,62.53
2022-09-07T11:55:25.366Z,62.32
2022-09-07T11:58:44.468Z,62.20
2022-09-07T12:01:45.223Z,61.47
2022-09-07T12:04:46.861Z,61.40
2022-09-07T12:07:33.609Z,61.17
2022-09-07T12:10:42.128Z,59.44
2022-09-07T12:13:46.316Z,59.15
2022-09-07T12:16:34.834Z,58.89
2022-09-07T12:19:02.170Z,59.15
2022-09-07T12:22:03.589Z,59.50
2022-09-07T12:24:45.978Z,59.67
2022-09-07T12:27:33.678Z,59.08
2022-09-07T12:30:03.713Z,59.16
2022-09-07T12:32:58.229Z,58.57
2022-09-07T12:35:28.535Z,58.36
2022-09-07T12:41:41.061Z,59.29
2022-09-07T12:44:17.503Z,58.80
2022-09-07T12:46:48.467Z,58.90
2022-09-07T12:49:52.778Z,58.30
2022-09-07T12:52:45.616Z,57.72
2022-09-07T12:58:34.846Z,56.06
2022-09-07T13:01:15.504Z,56.55
2022-09-07T13:03:52.413Z,57.31
2022-09-07T13:07:02.428Z,58.21
2022-09-07T13:09:38.157Z,57.63
2022-09-07T13:16:06.435Z,58.19
2022-09-07T13:18:37.703Z,58.81
2022-09-07T13:21:07.893Z,58.33
2022-09-07T13:23:51.375Z,57.38
2022-09-07T13:26:55.161Z,57.86
2022-09-07T13:29:46.425Z,56.16
2022-09-07T13:35:24.150Z,55.67
2022-09-07T13:38:02.362Z,55.47
2022-09-07T13:40:34.345Z,56.10
2022-09-07T13:43:04.659Z,56.42
2022-09-07T13:45:55.694Z,56.99
2022-09-07T13:48:58.346Z,57.40
2022-09-07T13:51:38.334Z,57.58
2022-09-07T13:54:14.130Z,57.08
2022-09-07T13:56:55.729Z,56.92
2022-09-07T13:59:27.685Z,56.40
2022-09-07T14:01:57.221Z,55.78
2022-09-07T14:04:35.637Z,55.30
2022-09-07T14:07:13.914Z,54.66
2022-09-07T14:09:41.313Z,54.43
2022-09-07T14:12:20.897Z,54.73
2022-09-07T14:15:25.599Z,55.00
2022-09-07T14:18:03.979Z,54.16
2022-09-07T14:20:32.580Z,54.59
2022-09-07T14:23:00.286Z,52.65
2022-09-07T14:25:27.734Z,53.20
2022-09-07T14:27:56.323Z,53.26
2022-09-07T14:30:32.071Z,53.63
2022-09-07T14:33:17.333Z,53.05
2022-09-07T14:35:44.438Z,52.33
2022-09-07T14:41:21.427Z,53.13
2022-09-07T14:43:55.251Z,53.11
2022-09-07T14:46:30.130Z,52.10
2022-09-07T14:49:04.291Z,52.12
2022-09-07T14:51:36.436Z,53.08
2022-09-07T14:54:08.050Z,52.96
2022-09-07T14:56:40.908Z,53.27
2022-09-07T14:59:43.524Z,53.40
2022-09-07T15:02:22.136Z,53.29
2022-09-07T15:05:24.009Z,52.32
2022-09-07T15:08:00.911Z,53.14
2022-09-07T15:13:36.946Z,53.32
2022-09-07T15:16:07.423Z,53.13
2022-09-07T15:19:02.474Z,53.07
2022-09-07T15:21:36.625Z,53.79
2022-09-07T15:24:04.057Z,53.80
2022-09-07T15:29:28.575Z,53.98
2022-09-07T15:32:03.496Z,53.93
2022-09-07T15:34:32.476Z,54.34
2022-09-07T15:37:00.877Z,53.65
2022-09-07T15:39:29.884Z,53.56
2022-09-07T15:41:59.042Z,53.75
2022-09-07T15:44:28.611Z,53.27
2022-09-07T15:49:49.490Z,53.35
2022-09-07T15:52:18.243Z,53.92
2022-09-07T15:54:45.363Z,54.21
2022-09-07T15:59:59.525Z,55.25
2022-09-07T16:05:13.796Z,55.63
2022-09-07T16:10:31.610Z,54.91
2022-09-07T16:13:01.836Z,54.31
2022-09-07T16:15:31.496Z,54.50
2022-09-07T16:17:59.119Z,54.61
2022-09-07T16:20:32.038Z,54.55
2022-09-07T16:23:16.256Z,54.71
2022-09-07T16:25:58.413Z,54.87
2022-09-07T16:28:26.306Z,55.04
2022-09-07T16:30:54.236Z,55.12
2022-09-07T16:33:21.401Z,55.43
2022-09-07T16:36:04.301Z,56.26
2022-09-07T16:38:47.580Z,56.43
2022-09-07T16:41:26.662Z,56.60
2022-09-07T16:43:54.783Z,56.70
2022-09-07T16:46:26.304Z,56.93
2022-09-07T16:48:54.261Z,57.42
2022-09-07T16:51:22.954Z,57.00
2022-09-07T16:53:53.292Z,57.23
2022-09-07T16:56:24.391Z,57.82
2022-09-07T16:58:56.008Z,57.91
2022-09-07T17:01:27.957Z,57.89
2022-09-07T17:03:56.598Z,57.61
2022-09-07T17:06:27.294Z,58.30
2022-09-07T17:08:55.172Z,58.13
2022-09-07T17:11:26.479Z,58.86
2022-09-07T17:13:54.048Z,58.53
2022-09-07T17:16:28.224Z,58.61
2022-09-07T17:21:43.311Z,58.41
2022-09-07T17:24:11.885Z,58.51
2022-09-07T17:26:42.243Z,58.80
2022-09-07T17:29:09.746Z,59.29
2022-09-07T17:34:25.551Z,59.13
2022-09-07T17:36:52.757Z,59.02
2022-09-07T17:39:19.983Z,58.58
2022-09-07T17:41:49.314Z,59.15
2022-09-07T17:44:16.335Z,58.69
2022-09-07T17:46:43.535Z,58.68
2022-09-07T17:49:16.632Z,58.78
2022-09-07T17:51:45.015Z,59.30
2022-09-07T17:54:17.322Z,59.33
2022-09-07T17:56:45.272Z,59.69
2022-09-07T18:01:59.907Z,59.78
2022-09-07T18:04:28.205Z,60.11
2022-09-07T18:06:55.575Z,59.90
2022-09-07T18:09:22.815Z,59.99
2022-09-07T18:11:50.495Z,60.44
2022-09-07T18:14:19.053Z,60.18
2022-09-07T18:16:49.302Z,60.83
2022-09-07T18:19:18.300Z,60.80
2022-09-07T18:21:45.716Z,60.49
2022-09-07T18:24:17.837Z,60.72
2022-09-07T18:26:50.891Z,61.29
2022-09-07T18:29:29.329Z,61.00
2022-09-07T18:31:58.937Z,60.99
2022-09-07T18:34:26.263Z,60.98
2022-09-07T18:36:53.849Z,61.50
2022-09-07T18:39:23.073Z,61.64
2022-09-07T18:41:50.314Z,61.97
2022-09-07T18:47:06.319Z,61.96
2022-09-07T18:49:33.223Z,61.99
2022-09-07T18:54:47.310Z,61.76
2022-09-07T18:57:15.497Z,61.81
2022-09-07T18:59:42.559Z,62.03
2022-09-07T19:02:10.801Z,61.42
2022-09-07T19:07:29.542Z,61.87
2022-09-07T19:09:57.834Z,61.81
2022-09-07T19:12:24.927Z,61.56
2022-09-07T19:14:51.859Z,61.63
2022-09-07T19:17:19.387Z,61.61
2022-09-07T19:19:46.379Z,61.42
2022-09-07T19:22:13.294Z,61.46
2022-09-07T19:24:40.167Z,61.29
2022-09-07T19:27:07.585Z,61.65
2022-09-07T19:29:34.689Z,61.18
2022-09-07T19:32:05.416Z,61.24
2022-09-07T19:34:42.158Z,61.16
2022-09-07T19:37:11.712Z,61.19
2022-09-07T19:39:38.891Z,61.15
2022-09-07T19:42:07.798Z,61.22
2022-09-07T19:44:35.111Z,60.81
2022-09-07T19:47:02.150Z,60.45
2022-09-07T19:49:30.259Z,60.74
2022-09-07T19:51:57.210Z,60.55
2022-09-07T19:54:24.466Z,60.62
2022-09-07T19:56:51.404Z,60.74
2022-09-07T19:59:19.587Z,60.76
2022-09-07T20:01:48.470Z,60.77
2022-09-07T20:04:20.622Z,61.32
2022-09-07T20:06:50.242Z,61.35
2022-09-07T20:09:19.956Z,61.47
2022-09-07T20:11:48.182Z,61.14
2022-09-07T20:14:16.728Z,61.33
2022-09-07T20:16:43.976Z,61.68
2022-09-07T20:19:14.621Z,61.50
2022-09-07T20:21:43.057Z,61.49
2022-09-07T20:24:14.443Z,61.73
2022-09-07T20:26:41.736Z,61.77
2022-09-07T20:29:26.902Z,62.27
2022-09-07T20:31:57.680Z,62.28
2022-09-07T20:34:25.880Z,62.50
2022-09-07T20:36:53.199Z,63.13
2022-09-07T20:39:21.349Z,63.06
2022-09-07T20:41:48.492Z,63.17
2022-09-07T20:44:15.887Z,63.19
2022-09-07T20:46:43.642Z,63.40
2022-09-07T20:49:11.163Z,63.83
2022-09-07T20:51:38.851Z,63.74
2022-09-07T20:54:07.079Z,63.50
2022-09-07T20:56:33.994Z,63.91
2022-09-07T20:59:03.623Z,63.91
2022-09-07T21:01:35.872Z,64.15
2022-09-07T21:04:04.163Z,63.73
2022-09-07T21:06:32.018Z,63.92
2022-09-07T21:09:02.859Z,64.30
2022-09-07T21:11:35.425Z,64.31
2022-09-07T21:14:10.290Z,64.63
2022-09-07T21:16:38.012Z,64.46
2022-09-07T21:19:10.938Z,64.63
2022-09-07T21:21:41.800Z,64.41
2022-09-07T21:24:19.692Z,64.31
2022-09-07T21:26:49.027Z,64.08
2022-09-07T21:29:22.956Z,65.02
2022-09-07T21:31:53.114Z,64.81
2022-09-07T21:34:21.363Z,65.12
2022-09-07T21:36:48.286Z,65.61
2022-09-07T21:39:16.335Z,65.33
2022-09-07T21:41:45.208Z,65.54
2022-09-07T21:44:15.736Z,66.11
2022-09-07T21:46:44.046Z,66.57
2022-09-07T21:49:11.784Z,66.12
2022-09-07T21:51:38.875Z,66.57
2022-09-07T21:54:06.125Z,66.93
2022-09-07T21:56:33.217Z,67.15
2022-09-07T21:59:01.997Z,67.03
2022-09-07T22:01:30.772Z,66.96
2022-09-07T22:04:04.042Z,66.79
2022-09-07T22:06:32.421Z,67.06
2022-09-07T22:09:01.983Z,67.30
2022-09-07T22:11:29.822Z,66.98
2022-09-07T22:14:00.482Z,66.55
2022-09-07T22:16:27.720Z,67.00
2022-09-07T22:18:55.069Z,67.15
2022-09-07T22:21:27.890Z,67.31
2022-09-07T22:23:58.352Z,67.62
2022-09-07T22:26:28.636Z,67.91
2022-09-07T22:28:56.147Z,68.04
2022-09-07T22:31:33.649Z,68.30
2022-09-07T22:34:04.721Z,68.41
2022-09-07T22:36:44.260Z,68.29
2022-09-07T22:39:15.898Z,68.39
2022-09-07T22:41:44.079Z,68.49
2022-09-07T22:44:14.928Z,68.83
2022-09-07T22:46:43.719Z,68.80
2022-09-07T22:49:16.209Z,68.81
2022-09-07T22:51:43.907Z,69.67
2022-09-07T22:54:11.209Z,69.70
2022-09-07T22:56:39.652Z,69.55
2022-09-07T22:59:09.029Z,70.42
2022-09-07T23:01:37.246Z,70.84
2022-09-07T23:04:06.167Z,70.71
2022-09-07T23:06:42.018Z,71.17
2022-09-07T23:09:16.556Z,71.32
2022-09-07T23:11:45.896Z,71.19
2022-09-07T23:14:22.052Z,71.61
2022-09-07T23:16:49.666Z,71.69
2022-09-07T23:19:18.565Z,71.96
2022-09-07T23:21:46.142Z,72.41
2022-09-07T23:24:17.272Z,72.74
2022-09-07T23:26:44.719Z,72.50
2022-09-07T23:29:13.783Z,73.25
2022-09-07T23:31:42.182Z,73.41
2022-09-07T23:34:09.745Z,72.93
2022-09-07T23:36:37.408Z,73.67
2022-09-07T23:39:04.899Z,73.85
2022-09-07T23:41:31.955Z,73.82
2022-09-07T23:43:59.053Z,74.29
2022-09-07T23:46:26.332Z,74.64
2022-09-07T23:48:53.469Z,74.86
2022-09-07T23:51:24.202Z,75.19
2022-09-07T23:53:52.945Z,74.76
2022-09-07T23:56:21.241Z,75.18
2022-09-07T23:58:48.139Z,75.38
